Time;durP1;ratioP1;P1;durP2;ratioP2;P2;SDS_P1;SDS_P2;PMS_P1;PMS_P2;Temp;Humidity;BMP_temperature;BMP_pressure;BME280_temperature;BME280_humidity;BME280_pressure;Samples;Min_cycle;Max_cycle;Signal;HPM_P1;HPM_P2
2023/10/03 00:01:43;;;;;;;5.55;2.60;;;17.20;90.50;;;;;;4808382;29;20119;-79
2023/10/03 00:04:09;;;;;;;5.75;2.53;;;17.10;90.50;;;;;;4825167;29;20051;-78
2023/10/03 00:06:36;;;;;;;4.65;2.30;;;17.10;90.50;;;;;;4824979;29;20085;-79
2023/10/03 00:09:02;;;;;;;4.80;2.25;;;17.10;90.50;;;;;;4791581;29;20476;-78
2023/10/03 00:11:29;;;;;;;4.18;2.17;;;17.20;90.50;;;;;;4808879;29;20045;-77
2023/10/03 00:13:55;;;;;;;4.55;2.47;;;17.10;90.50;;;;;;4793128;29;20490;-79
2023/10/03 00:16:21;;;;;;;5.82;2.35;;;17.10;90.50;;;;;;4792894;29;20041;-79
2023/10/03 00:18:47;;;;;;;5.80;2.40;;;17.10;90.50;;;;;;4808269;29;20042;-79
2023/10/03 00:21:13;;;;;;;6.05;3.03;;;17.20;90.50;;;;;;4808249;29;20129;-78
2023/10/03 00:23:38;;;;;;;4.68;2.22;;;17.10;90.40;;;;;;4807127;29;20119;-78
2023/10/03 00:26:07;;;;;;;4.97;2.35;;;17.20;90.40;;;;;;4808248;29;20054;-78
2023/10/03 00:28:33;;;;;;;6.30;2.83;;;17.20;90.40;;;;;;4793447;29;20047;-79
2023/10/03 00:31:00;;;;;;;5.03;2.10;;;17.20;90.40;;;;;;4824739;29;20070;-79
2023/10/03 00:33:26;;;;;;;5.05;2.42;;;17.30;90.40;;;;;;4792975;29;20104;-78
2023/10/03 00:35:52;;;;;;;5.40;2.70;;;17.20;90.30;;;;;;4793121;29;20049;-78
2023/10/03 00:38:18;;;;;;;6.10;2.83;;;17.20;90.30;;;;;;4792796;29;20058;-79
2023/10/03 00:40:49;;;;;;;6.28;2.50;;;17.30;90.30;;;;;;4824508;29;20102;-79
2023/10/03 00:43:15;;;;;;;4.90;2.53;;;17.20;90.20;;;;;;4824456;29;20054;-79
2023/10/03 00:45:42;;;;;;;4.78;2.20;;;17.30;90.20;;;;;;4807984;29;20038;-79
2023/10/03 00:48:08;;;;;;;4.88;2.50;;;17.30;90.20;;;;;;4807735;29;20524;-79
2023/10/03 00:50:35;;;;;;;4.60;2.42;;;17.30;90.20;;;;;;4824770;29;20382;-79
2023/10/03 00:53:09;;;;;;;5.78;2.92;;;17.30;90.20;;;;;;4807886;29;20051;-78
2023/10/03 00:55:37;;;;;;;7.88;3.17;;;17.20;90.20;;;;;;4793418;29;20057;-78
2023/10/03 00:58:17;;;;;;;5.85;3.05;;;17.30;90.20;;;;;;4808222;29;20047;-78
2023/10/03 01:00:46;;;;;;;5.10;2.35;;;17.30;90.30;;;;;;4769554;30;20510;-79
2023/10/03 01:03:30;;;;;;;6.70;3.10;;;17.30;90.60;;;;;;4785346;29;20055;-79
2023/10/03 01:05:58;;;;;;;4.72;2.42;;;17.40;90.20;;;;;;4786289;29;20047;-79
2023/10/03 01:08:29;;;;;;;4.95;2.35;;;17.40;90.10;;;;;;4785691;29;20062;-79
2023/10/03 01:10:55;;;;;;;4.93;2.53;;;17.40;90.10;;;;;;4737792;30;20052;-79
2023/10/03 01:13:24;;;;;;;5.57;2.47;;;17.50;90.10;;;;;;4738024;30;20052;-79
2023/10/03 01:15:52;;;;;;;4.63;2.42;;;17.40;90.00;;;;;;4752883;30;20138;-79
2023/10/03 01:18:20;;;;;;;6.82;3.33;;;17.40;90.00;;;;;;4767401;30;20086;-79
2023/10/03 01:20:55;;;;;;;7.90;3.22;;;17.50;90.10;;;;;;4738146;30;20059;-79
2023/10/03 01:23:21;;;;;;;6.18;2.80;;;17.80;89.80;;;;;;4767388;30;20135;-79
2023/10/03 01:25:48;;;;;;;7.68;3.67;;;17.90;89.20;;;;;;4737683;30;20048;-79
2023/10/03 01:28:15;;;;;;;7.32;3.35;;;17.90;88.90;;;;;;4738048;30;20143;-79
2023/10/03 01:30:41;;;;;;;7.65;3.53;;;17.90;88.90;;;;;;4753927;30;20130;-79
2023/10/03 01:33:10;;;;;;;7.28;3.33;;;17.90;88.90;;;;;;4770190;30;20066;-79
2023/10/03 01:35:35;;;;;;;6.28;3.28;;;17.90;88.90;;;;;;4769942;30;20576;-79
2023/10/03 01:38:01;;;;;;;6.20;2.78;;;18.00;88.80;;;;;;4755038;29;20043;-79
2023/10/03 01:40:27;;;;;;;7.97;3.58;;;17.90;88.80;;;;;;4770280;30;20496;-78
2023/10/03 01:42:53;;;;;;;6.25;3.17;;;17.90;88.80;;;;;;4804740;29;20109;-78
2023/10/03 01:45:23;;;;;;;6.07;3.00;;;18.00;88.90;;;;;;4823540;29;20053;-78
2023/10/03 01:47:51;;;;;;;5.63;2.90;;;17.90;88.90;;;;;;4823730;29;20054;-78
2023/10/03 01:50:19;;;;;;;8.10;3.35;;;17.90;89.00;;;;;;4791804;29;20050;-78
2023/10/03 01:52:46;;;;;;;5.90;2.92;;;17.80;89.00;;;;;;4821629;29;20134;-78
2023/10/03 01:55:13;;;;;;;6.25;2.75;;;17.80;89.10;;;;;;4822923;29;20039;-78
2023/10/03 01:57:43;;;;;;;5.00;2.40;;;17.90;89.10;;;;;;4806910;29;20050;-78
2023/10/03 02:00:26;;;;;;;6.22;3.15;;;17.90;89.10;;;;;;4822702;29;20063;-78
2023/10/03 02:02:56;;;;;;;5.82;2.55;;;17.90;89.30;;;;;;4803173;29;20516;-78
2023/10/03 02:05:24;;;;;;;8.47;3.67;;;18.00;89.10;;;;;;4806724;29;20073;-79
2023/10/03 02:07:52;;;;;;;6.13;2.60;;;18.10;88.80;;;;;;4806354;29;20510;-79
2023/10/03 02:10:19;;;;;;;7.03;3.35;;;18.10;88.50;;;;;;4806754;29;20120;-79
2023/10/03 02:12:49;;;;;;;6.15;3.08;;;18.20;88.30;;;;;;4807013;29;20050;-79
2023/10/03 02:15:21;;;;;;;8.05;3.80;;;18.30;88.10;;;;;;4791766;29;20070;-79
2023/10/03 02:17:49;;;;;;;6.07;3.22;;;18.50;88.10;;;;;;4822850;29;20042;-79
2023/10/03 02:20:20;;;;;;;9.50;4.43;;;18.50;87.60;;;;;;4806639;29;20045;-80
2023/10/03 02:22:53;;;;;;;7.45;3.47;;;18.60;87.30;;;;;;4806683;29;20471;-80
2023/10/03 02:25:22;;;;;;;7.63;3.83;;;18.60;87.10;;;;;;4806601;29;20046;-80
2023/10/03 02:27:49;;;;;;;7.82;3.90;;;18.60;87.10;;;;;;4821442;29;20050;-80
2023/10/03 02:30:19;;;;;;;7.90;3.63;;;18.60;87.00;;;;;;4806627;29;20047;-80
2023/10/03 02:32:45;;;;;;;7.53;3.95;;;18.70;86.80;;;;;;4791548;29;20476;-80
2023/10/03 02:35:13;;;;;;;7.32;3.70;;;18.90;86.80;;;;;;4790810;29;20129;-80
2023/10/03 02:37:39;;;;;;;9.38;4.40;;;18.90;86.60;;;;;;4791419;29;20046;-80
2023/10/03 02:40:07;;;;;;;8.40;4.03;;;18.90;86.50;;;;;;4806218;29;20053;-80
2023/10/03 02:42:39;;;;;;;8.60;4.10;;;18.90;86.30;;;;;;4791376;29;20115;-81
2023/10/03 02:45:06;;;;;;;8.07;4.20;;;18.90;86.30;;;;;;4791733;29;20050;-79
2023/10/03 02:47:35;;;;;;;10.27;4.38;;;19.00;86.30;;;;;;4794693;29;20042;-81
2023/10/03 02:50:01;;;;;;;8.73;4.53;;;19.00;86.20;;;;;;4794593;29;20102;-80
2023/10/03 02:52:27;;;;;;;8.40;4.47;;;19.00;86.10;;;;;;4809270;29;20038;-81
2023/10/03 02:54:52;;;;;;;7.57;4.10;;;19.00;86.10;;;;;;4825975;29;20088;-80
2023/10/03 02:57:20;;;;;;;8.95;4.15;;;19.00;86.10;;;;;;4794675;29;20049;-79
2023/10/03 02:59:47;;;;;;;10.82;4.18;;;19.00;86.10;;;;;;4809185;29;20409;-80
2023/10/03 03:02:14;;;;;;;9.20;4.15;;;19.00;86.20;;;;;;4809712;29;20079;-80
2023/10/03 03:04:41;;;;;;;6.78;3.58;;;19.00;86.20;;;;;;4826029;29;20046;-79
2023/10/03 03:07:07;;;;;;;8.85;3.70;;;19.00;86.30;;;;;;4825883;29;20477;-80
2023/10/03 03:09:36;;;;;;;8.25;4.25;;;18.90;86.20;;;;;;4808707;29;20073;-80
2023/10/03 03:12:04;;;;;;;8.45;4.00;;;18.90;86.30;;;;;;4794290;29;20130;-80
2023/10/03 03:14:30;;;;;;;8.45;4.13;;;18.90;86.40;;;;;;4809267;29;20050;-80
2023/10/03 03:16:56;;;;;;;8.23;4.10;;;19.00;86.30;;;;;;4825211;29;20050;-81
2023/10/03 03:19:23;;;;;;;8.25;4.07;;;19.00;86.30;;;;;;4793606;29;20043;-80
2023/10/03 03:21:50;;;;;;;8.45;4.10;;;19.00;86.20;;;;;;4794309;29;20050;-80
2023/10/03 03:24:28;;;;;;;7.18;3.17;;;19.10;86.20;;;;;;4794056;29;20057;-80
2023/10/03 03:26:57;;;;;;;6.90;3.78;;;19.10;86.10;;;;;;4810378;29;20054;-80
2023/10/03 03:29:35;;;;;;;7.85;3.78;;;19.10;86.00;;;;;;4824831;29;20056;-80
2023/10/03 03:32:01;;;;;;;9.27;3.88;;;19.10;86.00;;;;;;4794953;29;20050;-81
2023/10/03 03:34:26;;;;;;;7.30;3.53;;;19.10;85.90;;;;;;4808890;29;20413;-79
2023/10/03 03:36:55;;;;;;;8.40;3.85;;;19.10;85.80;;;;;;4825379;29;20478;-80
2023/10/03 03:39:21;;;;;;;6.47;3.20;;;19.10;85.90;;;;;;4808932;29;20410;-80
2023/10/03 03:41:48;;;;;;;7.53;3.58;;;19.20;85.90;;;;;;4808967;29;20047;-81
2023/10/03 03:44:14;;;;;;;7.82;3.78;;;19.10;85.90;;;;;;4808955;29;20046;-80
2023/10/03 03:46:44;;;;;;;7.40;3.65;;;19.10;85.90;;;;;;4824773;29;20109;-81
2023/10/03 03:49:12;;;;;;;6.43;3.25;;;19.10;86.00;;;;;;4808630;29;20129;-80
2023/10/03 03:51:38;;;;;;;7.65;3.55;;;19.10;86.70;;;;;;4824850;29;20042;-80
2023/10/03 03:54:11;;;;;;;6.40;3.22;;;19.10;86.10;;;;;;4808453;29;20070;-80
2023/10/03 03:56:38;;;;;;;6.90;3.30;;;19.10;86.10;;;;;;4794385;29;20133;-81
2023/10/03 03:59:08;;;;;;;6.22;3.42;;;19.10;86.10;;;;;;4793659;29;20034;-81
2023/10/03 04:01:34;;;;;;;6.20;3.10;;;19.10;86.10;;;;;;4824556;29;20453;-80
2023/10/03 04:04:00;;;;;;;6.93;3.17;;;19.10;86.10;;;;;;4824756;29;20038;-80
2023/10/03 04:06:26;;;;;;;9.18;3.42;;;19.10;86.10;;;;;;4793585;29;20034;-81
2023/10/03 04:08:52;;;;;;;6.75;3.40;;;19.10;86.00;;;;;;4793080;29;20137;-80
2023/10/03 04:11:18;;;;;;;8.38;3.83;;;19.10;85.90;;;;;;4824483;29;20051;-81
2023/10/03 04:13:53;;;;;;;6.38;3.38;;;19.20;85.90;;;;;;4824647;29;20047;-80
2023/10/03 04:16:21;;;;;;;6.45;3.33;;;19.20;85.80;;;;;;4809785;29;20050;-81
2023/10/03 04:18:49;;;;;;;6.97;3.30;;;19.20;85.70;;;;;;4807898;29;20383;-81
2023/10/03 04:21:16;;;;;;;7.32;3.30;;;19.30;86.40;;;;;;4808345;29;20469;-79
2023/10/03 04:23:43;;;;;;;6.90;3.38;;;19.30;85.70;;;;;;4793030;29;20057;-80
2023/10/03 04:26:09;;;;;;;8.50;3.50;;;19.30;85.60;;;;;;4808498;29;20046;-79
2023/10/03 04:28:35;;;;;;;5.80;2.90;;;19.20;85.60;;;;;;4824087;29;20102;-79
2023/10/03 04:31:01;;;;;;;6.38;3.00;;;19.30;85.70;;;;;;4793159;29;20046;-80
2023/10/03 04:33:26;;;;;;;5.88;3.15;;;19.20;85.60;;;;;;4807795;29;20050;-81
2023/10/03 04:35:52;;;;;;;6.95;3.33;;;19.20;85.70;;;;;;4793140;29;20034;-79
2023/10/03 04:38:18;;;;;;;8.02;3.00;;;19.20;85.80;;;;;;4793650;29;20493;-79
2023/10/03 04:40:47;;;;;;;6.13;2.95;;;19.20;85.90;;;;;;4824335;29;20043;-80
2023/10/03 04:43:14;;;;;;;7.13;3.20;;;19.20;85.90;;;;;;4808037;29;20132;-80
2023/10/03 04:45:41;;;;;;;6.53;3.20;;;19.20;85.90;;;;;;4753173;30;20051;-80
2023/10/03 04:48:07;;;;;;;6.05;2.95;;;19.20;85.90;;;;;;4723971;30;20052;-78
2023/10/03 04:50:35;;;;;;;5.90;2.92;;;19.20;85.90;;;;;;4768002;30;20051;-79
2023/10/03 04:53:02;;;;;;;5.53;2.50;;;19.20;85.90;;;;;;4738237;30;20130;-79
2023/10/03 04:55:28;;;;;;;6.45;2.88;;;19.30;85.90;;;;;;4730837;30;20080;-80
2023/10/03 04:57:55;;;;;;;6.32;2.70;;;19.20;85.90;;;;;;4768307;30;20075;-79
2023/10/03 05:00:22;;;;;;;7.38;2.78;;;19.10;85.90;;;;;;4753443;30;20051;-79
2023/10/03 05:02:50;;;;;;;5.25;2.47;;;19.10;86.00;;;;;;4723546;30;20051;-78
2023/10/03 05:05:21;;;;;;;4.53;2.15;;;19.10;86.00;;;;;;4752582;30;20454;-78
2023/10/03 05:07:48;;;;;;;4.80;2.47;;;19.10;86.00;;;;;;4752865;30;20090;-79
2023/10/03 05:10:17;;;;;;;3.72;2.08;;;19.00;86.00;;;;;;4752324;30;20527;-79
2023/10/03 05:12:45;;;;;;;3.55;2.00;;;19.00;86.10;;;;;;4767691;30;20062;-81
2023/10/03 05:15:12;;;;;;;4.47;2.20;;;19.00;86.00;;;;;;4738071;30;20534;-78
2023/10/03 05:17:39;;;;;;;3.97;1.85;;;19.00;86.00;;;;;;4771394;29;20133;-78
2023/10/03 05:20:05;;;;;;;5.78;2.08;;;19.00;86.00;;;;;;4807470;29;20054;-78
2023/10/03 05:22:32;;;;;;;2.65;1.70;;;19.00;85.90;;;;;;4792825;29;20058;-86
2023/10/03 05:25:01;;;;;;;5.22;1.80;;;18.90;85.90;;;;;;4787165;29;20039;-77
2023/10/03 05:27:29;;;;;;;3.67;1.73;;;19.00;86.00;;;;;;4785488;29;20051;-76
2023/10/03 05:29:59;;;;;;;3.00;1.80;;;18.90;86.00;;;;;;4770912;30;20058;-75
2023/10/03 05:32:28;;;;;;;2.95;1.50;;;18.90;86.10;;;;;;4770347;29;20047;-76
2023/10/03 05:34:54;;;;;;;3.47;1.98;;;18.80;86.10;;;;;;4785281;29;20392;-76
2023/10/03 05:37:20;;;;;;;3.45;2.10;;;18.80;86.20;;;;;;4785715;29;20134;-75
2023/10/03 05:39:45;;;;;;;3.25;1.75;;;18.80;86.20;;;;;;4767809;30;20492;-76
2023/10/03 05:42:17;;;;;;;3.10;1.70;;;18.80;86.20;;;;;;4752459;30;20177;-75
2023/10/03 05:44:44;;;;;;;3.55;1.60;;;18.70;86.10;;;;;;4752535;30;20066;-74
2023/10/03 05:47:10;;;;;;;2.72;1.80;;;18.80;86.20;;;;;;4752466;30;20048;-78
2023/10/03 05:49:36;;;;;;;3.05;1.60;;;18.80;86.10;;;;;;4751979;30;20062;-75
2023/10/03 05:52:02;;;;;;;2.83;1.65;;;18.70;86.10;;;;;;4752156;30;20104;-75
2023/10/03 05:54:30;;;;;;;2.17;1.65;;;18.70;86.00;;;;;;4751999;30;20040;-75
2023/10/03 05:56:56;;;;;;;3.85;1.77;;;18.80;86.10;;;;;;4751143;30;20417;-75
2023/10/03 05:59:23;;;;;;;2.80;1.70;;;18.80;86.00;;;;;;4767119;30;20043;-76
2023/10/03 06:01:49;;;;;;;2.42;1.40;;;18.70;86.00;;;;;;4755964;30;20045;-76
2023/10/03 06:04:16;;;;;;;2.42;1.52;;;18.80;86.00;;;;;;4767514;30;20132;-76
2023/10/03 06:06:43;;;;;;;3.65;1.80;;;18.80;86.00;;;;;;4750539;30;20046;-76
2023/10/03 06:09:10;;;;;;;2.88;1.50;;;18.80;86.10;;;;;;4769099;30;20036;-79
2023/10/03 06:11:37;;;;;;;2.78;1.60;;;18.70;86.00;;;;;;4804287;29;20706;-78
2023/10/03 06:14:06;;;;;;;3.05;1.40;;;18.70;86.00;;;;;;4787925;29;20047;-78
2023/10/03 06:16:32;;;;;;;1.63;1.30;;;18.70;86.00;;;;;;4759100;29;20067;-78
2023/10/03 06:18:58;;;;;;;3.08;1.60;;;18.80;86.00;;;;;;4774551;29;20142;-78
2023/10/03 06:21:24;;;;;;;3.05;1.42;;;18.70;86.00;;;;;;4760805;29;20145;-78
2023/10/03 06:23:50;;;;;;;3.88;1.60;;;18.70;86.00;;;;;;4776395;29;20089;-78
2023/10/03 06:26:18;;;;;;;2.72;1.67;;;18.70;86.00;;;;;;4807117;29;20058;-78
2023/10/03 06:28:45;;;;;;;2.83;1.70;;;18.70;86.00;;;;;;4812524;29;20401;-76
2023/10/03 06:31:11;;;;;;;3.00;1.52;;;18.70;86.10;;;;;;4833587;29;20051;-76
2023/10/03 06:33:37;;;;;;;4.25;1.58;;;18.70;86.10;;;;;;4816578;29;20080;-76
2023/10/03 06:36:06;;;;;;;4.07;1.67;;;18.70;86.70;;;;;;4819619;29;20053;-80
2023/10/03 06:38:36;;;;;;;2.88;1.60;;;18.70;86.00;;;;;;4835049;29;20034;-78
2023/10/03 06:41:07;;;;;;;2.60;1.80;;;18.80;86.00;;;;;;4829055;29;20050;-78
2023/10/03 06:43:35;;;;;;;1.80;1.50;;;18.80;85.90;;;;;;4773355;30;20051;-78
2023/10/03 06:46:03;;;;;;;2.72;1.55;;;18.80;85.80;;;;;;4762092;30;20044;-78
2023/10/03 06:48:29;;;;;;;2.67;1.60;;;18.80;85.80;;;;;;4745858;30;20059;-78
2023/10/03 06:50:56;;;;;;;4.15;1.85;;;18.90;85.80;;;;;;4755681;30;20052;-78
2023/10/03 06:53:22;;;;;;;2.63;1.70;;;18.90;85.80;;;;;;4733474;30;20140;-78
2023/10/03 06:55:49;;;;;;;3.50;1.60;;;18.80;85.70;;;;;;4760510;30;20051;-78
2023/10/03 06:58:15;;;;;;;3.13;1.70;;;18.90;85.80;;;;;;4761555;30;20047;-78
2023/10/03 07:00:41;;;;;;;2.90;1.48;;;18.90;85.80;;;;;;4755778;30;20052;-78
2023/10/03 07:03:08;;;;;;;3.40;1.60;;;18.90;85.80;;;;;;4750233;30;20048;-78
2023/10/03 07:05:34;;;;;;;4.90;1.48;;;18.90;85.80;;;;;;4769677;30;20060;-79
2023/10/03 07:08:04;;;;;;;4.60;1.77;;;18.90;85.80;;;;;;4753469;30;20048;-79
2023/10/03 07:10:30;;;;;;;3.07;1.50;;;18.90;85.70;;;;;;4751350;30;20052;-78
2023/10/03 07:12:58;;;;;;;2.83;1.30;;;19.00;85.70;;;;;;4746769;30;20717;-80
2023/10/03 07:15:24;;;;;;;3.13;1.60;;;19.00;85.60;;;;;;4775912;30;20057;-78
2023/10/03 07:17:50;;;;;;;3.28;1.67;;;19.10;85.60;;;;;;4797167;30;20118;-79
2023/10/03 07:20:16;;;;;;;2.53;1.55;;;19.10;85.50;;;;;;4822241;29;20054;-80
2023/10/03 07:22:42;;;;;;;2.63;1.77;;;19.10;85.40;;;;;;4798177;29;20573;-79
2023/10/03 07:25:09;;;;;;;2.92;1.67;;;19.10;85.40;;;;;;4816889;29;20081;-81
2023/10/03 07:27:36;;;;;;;2.58;1.55;;;19.10;85.50;;;;;;4802887;29;20057;-80
2023/10/03 07:30:02;;;;;;;1.83;1.42;;;19.10;85.50;;;;;;4807239;29;20069;-81
2023/10/03 07:32:32;;;;;;;2.92;1.70;;;19.10;85.60;;;;;;4799028;29;20046;-80
2023/10/03 07:34:58;;;;;;;2.40;1.70;;;19.00;85.60;;;;;;4820519;29;20116;-79
2023/10/03 07:37:27;;;;;;;2.80;1.90;;;19.00;85.70;;;;;;4836548;29;20092;-79
2023/10/03 07:39:53;;;;;;;2.63;1.70;;;19.00;85.70;;;;;;4833779;29;20069;-81
2023/10/03 07:42:21;;;;;;;3.30;1.92;;;19.00;85.80;;;;;;4776394;30;20047;-80
2023/10/03 07:44:51;;;;;;;3.40;1.80;;;19.00;85.70;;;;;;4781798;30;20051;-80
2023/10/03 07:47:17;;;;;;;2.53;1.60;;;18.90;85.80;;;;;;4758111;30;20112;-78
2023/10/03 07:49:43;;;;;;;3.05;1.70;;;18.90;85.90;;;;;;4771926;30;20515;-78
2023/10/03 07:52:08;;;;;;;3.38;1.67;;;18.90;86.00;;;;;;4754242;30;20051;-80
2023/10/03 07:54:36;;;;;;;2.75;1.67;;;18.90;86.20;;;;;;4757214;30;20059;-79
2023/10/03 07:57:05;;;;;;;3.17;1.80;;;18.90;86.30;;;;;;4773850;30;20503;-80
2023/10/03 07:59:31;;;;;;;2.60;1.70;;;18.80;86.40;;;;;;4745268;30;20056;-81
2023/10/03 08:02:03;;;;;;;2.40;1.50;;;18.80;86.50;;;;;;4746707;30;20105;-81
2023/10/03 08:04:31;;;;;;;2.75;1.50;;;18.70;86.50;;;;;;4746658;30;20048;-81
2023/10/03 08:06:58;;;;;;;2.88;1.33;;;18.70;86.50;;;;;;4774001;30;20052;-80
2023/10/03 08:09:25;;;;;;;2.53;1.27;;;18.70;86.50;;;;;;4762580;30;20040;-80
2023/10/03 08:11:52;;;;;;;1.50;1.13;;;18.70;86.60;;;;;;4756902;30;20079;-81
2023/10/03 08:14:18;;;;;;;2.28;1.10;;;18.60;86.50;;;;;;4826694;29;20066;-81
2023/10/03 08:16:45;;;;;;;2.08;1.10;;;18.70;86.60;;;;;;4801684;29;20121;-81
2023/10/03 08:19:21;;;;;;;1.67;1.05;;;18.60;86.50;;;;;;4795480;29;20584;-79
2023/10/03 08:21:48;;;;;;;2.25;1.10;;;18.70;86.60;;;;;;4797451;29;20517;-80
2023/10/03 08:24:19;;;;;;;1.38;1.00;;;18.60;86.50;;;;;;4789835;29;20134;-80
2023/10/03 08:26:46;;;;;;;3.05;1.00;;;18.60;86.50;;;;;;4807079;29;20125;-80
2023/10/03 08:29:21;;;;;;;2.03;0.90;;;18.70;86.50;;;;;;4809945;29;20533;-81
2023/10/03 08:31:49;;;;;;;1.88;0.90;;;18.70;86.40;;;;;;4796236;29;20147;-80
2023/10/03 08:34:16;;;;;;;1.52;0.85;;;18.70;86.20;;;;;;4793148;29;20074;-80
2023/10/03 08:36:42;;;;;;;1.13;0.80;;;18.70;86.20;;;;;;4796739;29;20051;-80
2023/10/03 08:39:15;;;;;;;1.85;0.90;;;18.60;86.20;;;;;;4791818;29;20576;-81
2023/10/03 08:41:46;;;;;;;1.50;0.80;;;18.50;86.30;;;;;;4799601;29;20098;-80
2023/10/03 08:44:13;;;;;;;1.30;0.70;;;18.60;86.40;;;;;;4807770;29;20047;-81
2023/10/03 08:46:55;;;;;;;1.65;0.80;;;18.60;86.50;;;;;;4773608;29;20043;-80
2023/10/03 08:49:26;;;;;;;1.52;0.65;;;18.60;86.70;;;;;;4777458;29;20047;-80
2023/10/03 08:52:01;;;;;;;1.63;0.50;;;18.40;86.70;;;;;;4825469;29;20073;-81
2023/10/03 08:54:36;;;;;;;1.50;0.65;;;18.40;87.00;;;;;;4798451;29;20067;-79
2023/10/03 08:57:09;;;;;;;1.17;0.40;;;18.30;87.20;;;;;;4828280;29;20153;-79
2023/10/03 08:59:35;;;;;;;1.50;0.40;;;18.20;87.40;;;;;;4808943;29;20106;-80
2023/10/03 09:02:05;;;;;;;0.77;0.68;;;18.10;87.70;;;;;;4811193;29;20053;-81
2023/10/03 09:04:37;;;;;;;2.00;0.53;;;18.00;87.90;;;;;;4836603;29;20076;-80
2023/10/03 09:07:09;;;;;;;0.63;0.50;;;17.90;88.10;;;;;;4831151;29;20309;-79
2023/10/03 09:09:41;;;;;;;1.00;0.40;;;17.90;88.20;;;;;;4811389;29;20130;-80
2023/10/03 09:12:09;;;;;;;0.98;0.43;;;17.90;88.30;;;;;;4820324;29;20069;-80
2023/10/03 09:14:38;;;;;;;0.40;0.40;;;17.90;88.40;;;;;;4785614;30;20047;-79
2023/10/03 09:17:07;;;;;;;0.68;0.47;;;17.90;88.50;;;;;;4778175;30;20047;-80
2023/10/03 09:19:44;;;;;;;0.30;0.30;;;17.90;88.60;;;;;;4769799;30;20224;-79
2023/10/03 09:22:15;;;;;;;0.93;0.30;;;17.80;88.60;;;;;;4785626;30;20050;-78
2023/10/03 09:24:45;;;;;;;1.42;0.35;;;17.80;88.60;;;;;;4779480;30;20120;-80
2023/10/03 09:27:17;;;;;;;1.40;0.40;;;17.80;88.70;;;;;;4781932;30;20045;-79
2023/10/03 09:30:10;;;;;;;1.63;0.40;;;17.80;88.60;;;;;;4788042;29;20047;-81
2023/10/03 09:32:48;;;;;;;0.52;0.30;;;17.70;88.70;;;;;;4769906;30;20036;-80
2023/10/03 09:35:19;;;;;;;0.30;0.30;;;17.70;88.70;;;;;;4714117;30;20118;-79
2023/10/03 09:37:48;;;;;;;0.57;0.30;;;17.70;88.70;;;;;;4649916;30;20214;-80
2023/10/03 09:40:16;;;;;;;1.00;0.40;;;17.80;88.70;;;;;;4694857;30;20130;-79
2023/10/03 09:42:52;;;;;;;0.95;0.40;;;17.90;88.60;;;;;;4674810;30;20543;-82
2023/10/03 09:45:24;;;;;;;0.95;0.30;;;17.90;88.30;;;;;;4702104;30;20101;-80
2023/10/03 09:47:58;;;;;;;1.08;0.40;;;17.90;88.20;;;;;;4707027;30;20144;-80
2023/10/03 09:50:27;;;;;;;0.60;0.38;;;18.00;87.90;;;;;;4704024;30;20054;-78
2023/10/03 09:52:53;;;;;;;0.65;0.30;;;18.00;87.60;;;;;;4710313;30;20049;-79
2023/10/03 09:55:22;;;;;;;0.52;0.35;;;18.00;87.60;;;;;;4710138;30;20045;-79
2023/10/03 09:57:51;;;;;;;0.40;0.32;;;17.90;87.50;;;;;;4700459;30;20038;-81
2023/10/03 10:00:39;;;;;;;1.20;0.40;;;17.80;87.50;;;;;;4684929;30;20046;-78
2023/10/03 10:03:10;;;;;;;0.45;0.40;;;17.90;87.60;;;;;;4691704;30;20064;-80
2023/10/03 10:05:39;;;;;;;0.82;0.30;;;17.80;87.80;;;;;;4700315;30;20050;-79
2023/10/03 10:08:32;;;;;;;0.80;0.30;;;17.70;87.80;;;;;;4675179;30;20049;-81
2023/10/03 10:11:07;;;;;;;0.38;0.28;;;17.70;87.70;;;;;;4707721;30;20045;-79
2023/10/03 10:13:41;;;;;;;1.85;0.30;;;17.70;87.80;;;;;;4702639;30;20049;-80
2023/10/03 10:16:11;;;;;;;0.95;0.50;;;17.70;87.80;;;;;;4715941;30;20125;-79
2023/10/03 10:18:57;;;;;;;1.35;0.32;;;17.80;87.70;;;;;;4730083;30;20050;-78
2023/10/03 10:21:36;;;;;;;0.43;0.30;;;17.90;87.40;;;;;;4744618;30;20052;-79
2023/10/03 10:24:27;;;;;;;0.90;0.40;;;17.90;87.20;;;;;;4750488;30;20055;-78
2023/10/03 10:26:54;;;;;;;0.20;0.20;;;17.90;87.00;;;;;;4813333;29;20130;-78
2023/10/03 10:29:23;;;;;;;0.30;0.30;;;18.00;87.00;;;;;;4823456;29;20045;-79
2023/10/03 10:31:59;;;;;;;1.13;0.50;;;18.10;86.80;;;;;;4809028;29;20054;-78
2023/10/03 10:34:32;;;;;;;0.55;0.30;;;18.00;86.60;;;;;;4796119;29;20021;-78
2023/10/03 10:37:09;;;;;;;0.85;0.30;;;18.00;86.50;;;;;;4793247;29;20050;-78
2023/10/03 10:40:17;;;;;;;0.40;0.35;;;18.00;86.70;;;;;;4825667;29;20140;-79
2023/10/03 10:42:59;;;;;;;1.15;0.30;;;17.90;86.70;;;;;;4786960;29;20543;-80
2023/10/03 10:45:26;;;;;;;0.30;0.28;;;17.90;86.80;;;;;;4772555;30;20044;-80
2023/10/03 10:47:54;;;;;;;0.10;0.10;;;17.80;86.90;;;;;;4758960;29;20442;-80
2023/10/03 10:50:25;;;;;;;1.13;0.40;;;17.80;87.00;;;;;;4761237;30;20051;-79
2023/10/03 10:52:55;;;;;;;;;;;17.90;87.10;;;;;;4764213;30;20407;-79
2023/10/03 10:55:22;;;;;;;1.15;0.30;;;17.80;86.70;;;;;;4773263;30;19917;-80
2023/10/03 10:58:03;;;;;;;0.20;0.20;;;17.80;86.70;;;;;;4769966;30;20138;-78
2023/10/03 11:00:29;;;;;;;0.57;0.47;;;17.70;87.40;;;;;;4763596;29;20051;-80
2023/10/03 11:02:54;;;;;;;0.50;0.45;;;17.60;86.90;;;;;;4754408;30;20057;-79
2023/10/03 11:05:20;;;;;;;1.67;0.30;;;17.50;86.90;;;;;;4754563;30;20043;-79
2023/10/03 11:07:49;;;;;;;0.45;0.40;;;17.50;87.00;;;;;;4756240;30;20043;-79
2023/10/03 11:10:17;;;;;;;0.40;0.30;;;17.50;86.90;;;;;;4772753;30;20066;-79
2023/10/03 11:12:43;;;;;;;1.40;0.30;;;17.50;87.00;;;;;;4779761;29;20125;-79
2023/10/03 11:15:12;;;;;;;0.88;0.52;;;17.40;87.10;;;;;;4810939;29;20091;-80
2023/10/03 11:17:38;;;;;;;0.30;0.30;;;17.30;87.10;;;;;;4792844;29;20493;-80
2023/10/03 11:20:08;;;;;;;0.77;0.47;;;17.30;87.20;;;;;;4825267;29;20107;-80
2023/10/03 11:22:38;;;;;;;0.38;0.30;;;17.20;87.30;;;;;;4809596;29;20085;-80
2023/10/03 11:25:09;;;;;;;0.25;0.20;;;17.20;88.00;;;;;;4795067;29;20081;-80
2023/10/03 11:27:36;;;;;;;1.20;0.47;;;17.20;87.40;;;;;;4798488;29;20063;-80
2023/10/03 11:30:14;;;;;;;0.30;0.30;;;17.10;87.40;;;;;;4820436;29;20050;-81
2023/10/03 11:32:40;;;;;;;1.17;0.40;;;17.10;87.50;;;;;;4823193;29;20038;-83
2023/10/03 11:35:21;;;;;;;1.13;0.35;;;16.90;87.50;;;;;;4813159;29;20533;-80
2023/10/03 11:37:48;;;;;;;;;;;16.80;87.90;;;;;;4830986;29;20061;-81
2023/10/03 11:40:15;;;;;;;0.65;0.40;;;16.80;88.10;;;;;;4824958;29;19951;-82
2023/10/03 11:42:47;;;;;;;1.20;0.43;;;16.80;88.10;;;;;;4839154;29;20042;-81
2023/10/03 11:45:18;;;;;;;0.35;0.32;;;16.70;88.10;;;;;;4809496;29;20185;-81
2023/10/03 11:47:44;;;;;;;;;;;16.60;88.20;;;;;;4808199;29;20046;-80
2023/10/03 11:50:10;;;;;;;1.38;0.40;;;16.50;88.30;;;;;;4842004;29;19921;-80
2023/10/03 11:52:38;;;;;;;0.32;0.32;;;16.50;88.40;;;;;;4838722;29;20082;-81
2023/10/03 11:55:09;;;;;;;1.08;0.40;;;16.40;88.40;;;;;;4811262;29;20095;-80
2023/10/03 11:57:35;;;;;;;1.00;0.32;;;16.50;88.60;;;;;;4785259;30;20078;-82
2023/10/03 12:00:14;;;;;;;1.17;0.40;;;16.40;88.60;;;;;;4783917;30;20067;-81
2023/10/03 12:02:41;;;;;;;0.95;0.50;;;16.50;88.70;;;;;;4783162;30;20108;-80
2023/10/03 12:05:13;;;;;;;0.80;0.40;;;16.40;88.60;;;;;;4773804;30;20055;-81
2023/10/03 12:07:45;;;;;;;0.93;0.50;;;16.30;88.50;;;;;;4761019;30;20101;-81
2023/10/03 12:10:12;;;;;;;0.38;0.20;;;16.30;88.60;;;;;;4755946;30;20052;-81
2023/10/03 12:12:39;;;;;;;0.38;0.38;;;16.30;88.70;;;;;;4746139;30;20048;-80
2023/10/03 12:15:12;;;;;;;0.50;0.25;;;16.30;88.80;;;;;;4731115;30;20075;-80
2023/10/03 12:17:41;;;;;;;0.88;0.50;;;16.10;88.80;;;;;;4741316;30;20090;-81
2023/10/03 12:20:12;;;;;;;0.20;0.20;;;16.20;89.10;;;;;;4743242;30;20111;-80
2023/10/03 12:22:41;;;;;;;0.50;0.20;;;16.20;89.10;;;;;;4724353;30;20059;-81
2023/10/03 12:25:09;;;;;;;0.70;0.60;;;16.10;89.10;;;;;;4752744;30;20567;-79
2023/10/03 12:27:35;;;;;;;1.50;0.63;;;16.10;89.10;;;;;;4737720;30;20104;-79
2023/10/03 12:30:04;;;;;;;0.88;0.60;;;15.90;89.00;;;;;;4756727;30;20059;-77
2023/10/03 12:32:34;;;;;;;1.38;0.80;;;15.70;89.20;;;;;;4760794;30;20043;-79
2023/10/03 12:35:00;;;;;;;2.90;0.77;;;15.60;89.50;;;;;;4739462;30;20152;-80
2023/10/03 12:37:26;;;;;;;2.08;0.80;;;15.50;90.10;;;;;;4742167;30;20032;-78
2023/10/03 12:39:52;;;;;;;1.70;0.77;;;15.50;89.90;;;;;;4780188;30;20510;-79
2023/10/03 12:42:18;;;;;;;1.92;0.80;;;15.50;90.00;;;;;;4767271;30;20150;-78
2023/10/03 12:44:44;;;;;;;2.22;1.00;;;15.50;90.00;;;;;;4777454;29;20100;-77
2023/10/03 12:47:09;;;;;;;2.45;0.80;;;15.50;89.80;;;;;;4798698;29;20486;-78
2023/10/03 12:49:35;;;;;;;1.08;0.63;;;15.50;89.60;;;;;;4796212;29;20134;-78
2023/10/03 12:52:02;;;;;;;3.50;0.80;;;15.50;89.70;;;;;;4798414;29;20039;-78
2023/10/03 12:54:27;;;;;;;1.85;0.90;;;15.50;89.60;;;;;;4779112;29;20103;-78
2023/10/03 12:56:53;;;;;;;1.10;0.63;;;15.50;89.50;;;;;;4762272;29;20051;-78